createdAt,value
2018-01-04T00:00:49.687Z,66.73
2018-01-04T00:03:18.039Z,65.51
2018-01-04T00:05:46.467Z,67.83
2018-01-04T00:08:14.837Z,69.82
2018-01-04T00:10:43.195Z,68.62
2018-01-04T00:13:11.652Z,68.06
2018-01-04T00:15:40.008Z,69.02
2018-01-04T00:18:08.397Z,64.68
2018-01-04T00:20:36.771Z,69.11
2018-01-04T00:23:05.146Z,69.88
2018-01-04T00:25:33.511Z,67.92
2018-01-04T00:28:01.905Z,67.24
2018-01-04T00:30:30.284Z,70.83
2018-01-04T00:32:58.665Z,65.08
2018-01-04T00:35:27.068Z,66.42
2018-01-04T00:37:55.426Z,68.40
2018-01-04T00:40:23.776Z,67.08
2018-01-04T00:42:52.167Z,64.70
2018-01-04T00:45:20.518Z,66.91
2018-01-04T00:47:48.888Z,65.52
2018-01-04T00:50:17.280Z,68.58
2018-01-04T00:52:45.645Z,66.19
2018-01-04T00:55:14.066Z,67.92
2018-01-04T00:57:42.419Z,66.32
2018-01-04T01:00:10.879Z,67.57
2018-01-04T01:02:39.242Z,65.68
2018-01-04T01:05:07.622Z,68.92
2018-01-04T01:07:36.023Z,70.08
2018-01-04T01:10:04.446Z,66.86
2018-01-04T01:12:32.802Z,70.07
2018-01-04T01:15:01.157Z,68.18
2018-01-04T01:17:29.580Z,66.43
2018-01-04T01:19:57.946Z,66.06
2018-01-04T01:22:26.338Z,68.78
2018-01-04T01:24:54.691Z,68.56
2018-01-04T01:27:23.036Z,70.58
2018-01-04T01:29:51.387Z,66.57
2018-01-04T01:32:19.751Z,67.44
2018-01-04T01:34:48.144Z,66.25
2018-01-04T01:37:16.618Z,67.06
2018-01-04T01:39:45.027Z,65.77
2018-01-04T01:42:13.366Z,69.54
2018-01-04T01:44:41.722Z,67.17
2018-01-04T01:47:10.106Z,67.40
2018-01-04T01:49:38.459Z,67.63
2018-01-04T01:52:06.888Z,69.55
2018-01-04T01:54:35.382Z,65.62
2018-01-04T01:57:03.781Z,67.19
2018-01-04T01:59:32.313Z,67.16
2018-01-04T02:02:00.670Z,68.33
2018-01-04T02:04:29.012Z,67.22
2018-01-04T02:06:57.455Z,66.92
2018-01-04T02:09:25.824Z,65.55
2018-01-04T02:11:54.216Z,67.57
2018-01-04T02:14:22.566Z,64.02
2018-01-04T02:16:50.925Z,67.65
2018-01-04T02:19:30.896Z,71.39
2018-01-04T02:22:10.885Z,69.58
2018-01-04T02:24:51.001Z,66.95
2018-01-04T02:30:36.660Z,70.17
2018-01-04T02:33:26.910Z,67.34
2018-01-04T02:36:07.035Z,68.89
2018-01-04T02:38:46.807Z,69.78
2018-01-04T02:41:26.603Z,69.14
2018-01-04T02:43:59.457Z,66.49
2018-01-04T02:46:27.539Z,65.54
2018-01-04T02:48:55.628Z,66.10
2018-01-04T02:51:23.712Z,68.51
2018-01-04T02:53:51.795Z,62.69
2018-01-04T02:56:19.867Z,67.19
2018-01-04T02:58:47.988Z,67.47
2018-01-04T03:01:16.055Z,64.11
2018-01-04T03:03:44.152Z,63.65
2018-01-04T03:06:12.250Z,65.64
2018-01-04T03:08:40.322Z,70.69
2018-01-04T03:11:08.388Z,73.01
2018-01-04T03:13:36.483Z,71.78
2018-01-04T03:16:04.558Z,71.47
2018-01-04T03:18:32.660Z,70.30
2018-01-04T03:21:00.813Z,74.78
2018-01-04T03:23:34.560Z,76.34
2018-01-04T03:26:09.304Z,76.41
2018-01-04T03:28:43.015Z,74.75
2018-01-04T03:31:16.584Z,76.69
2018-01-04T03:33:50.278Z,77.79
2018-01-04T03:36:24.003Z,76.55
2018-01-04T03:38:57.681Z,75.78
2018-01-04T03:41:31.419Z,75.61
2018-01-04T03:44:04.977Z,74.65
2018-01-04T03:46:38.739Z,74.87
2018-01-04T03:49:12.350Z,71.83
2018-01-04T03:51:46.154Z,74.18
2018-01-04T03:54:19.699Z,76.47
2018-01-04T03:56:53.429Z,74.46
2018-01-04T03:59:27.099Z,75.76
2018-01-04T04:02:00.709Z,75.32
2018-01-04T04:04:34.180Z,74.79
2018-01-04T04:07:07.965Z,73.93
2018-01-04T04:09:36.159Z,73.07
2018-01-04T04:12:04.224Z,75.75
2018-01-04T04:14:32.343Z,73.27
2018-01-04T04:17:00.427Z,76.70
2018-01-04T04:19:28.499Z,75.52
2018-01-04T04:21:56.623Z,74.85
2018-01-04T04:24:24.712Z,76.68
2018-01-04T04:26:52.806Z,75.18
2018-01-04T04:29:20.911Z,74.40
2018-01-04T04:31:49.007Z,75.84
2018-01-04T04:34:17.072Z,77.42
2018-01-04T04:36:45.153Z,74.22
2018-01-04T04:39:13.218Z,74.93
2018-01-04T04:41:41.326Z,75.00
2018-01-04T04:44:09.392Z,73.14
2018-01-04T04:46:37.463Z,74.35
2018-01-04T04:49:05.572Z,75.00
2018-01-04T04:51:33.639Z,75.61
2018-01-04T04:54:01.848Z,75.57
2018-01-04T04:56:29.924Z,73.71
2018-01-04T04:58:57.995Z,72.83
2018-01-04T05:01:26.056Z,71.67
2018-01-04T05:03:54.134Z,73.35
2018-01-04T05:06:22.232Z,74.79
2018-01-04T05:08:50.298Z,70.70
2018-01-04T05:11:18.460Z,68.96
2018-01-04T05:13:46.538Z,68.91
2018-01-04T05:16:14.607Z,66.96
2018-01-04T05:18:42.704Z,67.60
2018-01-04T05:21:10.786Z,65.07
2018-01-04T05:23:38.954Z,66.88
2018-01-04T05:26:07.042Z,62.53
2018-01-04T05:28:35.116Z,67.07
2018-01-04T05:31:03.334Z,68.28
2018-01-04T05:33:31.420Z,64.27
2018-01-04T05:35:59.492Z,67.92
2018-01-04T05:38:27.593Z,67.25
2018-01-04T05:40:55.658Z,67.09
2018-01-04T05:43:23.808Z,67.91
2018-01-04T05:45:51.896Z,67.97
2018-01-04T05:48:19.987Z,68.00
2018-01-04T05:50:48.080Z,69.59
2018-01-04T05:53:16.168Z,66.97
2018-01-04T05:55:44.274Z,65.67
2018-01-04T05:58:12.326Z,70.46
2018-01-04T06:00:40.415Z,70.91
2018-01-04T06:03:08.645Z,68.04
2018-01-04T06:05:36.752Z,65.07
2018-01-04T06:08:04.869Z,69.06
2018-01-04T06:10:32.956Z,69.51
2018-01-04T06:13:01.033Z,69.02
2018-01-04T06:15:29.131Z,70.26
2018-01-04T06:17:57.266Z,70.71
2018-01-04T06:20:25.343Z,69.67
2018-01-04T06:22:53.435Z,69.25
2018-01-04T06:25:21.524Z,68.54
2018-01-04T06:27:49.612Z,71.47
2018-01-04T06:30:17.690Z,67.64
2018-01-04T06:32:45.898Z,67.30
2018-01-04T06:35:13.999Z,65.19
2018-01-04T06:37:42.059Z,69.08
2018-01-04T06:40:10.147Z,65.48
2018-01-04T06:42:38.231Z,65.50
2018-01-04T06:45:06.340Z,69.87
2018-01-04T06:47:34.452Z,66.26
2018-01-04T06:50:02.516Z,69.70
2018-01-04T06:52:30.590Z,64.70
2018-01-04T06:54:58.675Z,64.27
2018-01-04T06:57:26.773Z,64.86
2018-01-04T06:59:54.895Z,64.08
2018-01-04T07:02:22.990Z,65.23
2018-01-04T07:04:51.055Z,69.16
2018-01-04T07:07:19.156Z,70.34
2018-01-04T07:09:47.235Z,69.22
2018-01-04T07:12:15.348Z,65.68
2018-01-04T07:14:43.419Z,68.47
2018-01-04T07:17:11.506Z,67.40
2018-01-04T07:19:39.628Z,68.63
2018-01-04T07:22:07.702Z,67.20
2018-01-04T07:24:35.830Z,66.21
2018-01-04T07:27:03.899Z,67.77
2018-01-04T07:29:31.979Z,67.86
2018-01-04T07:32:00.064Z,69.16
2018-01-04T07:34:28.144Z,68.63
2018-01-04T07:36:56.265Z,67.12
2018-01-04T07:39:24.354Z,65.66
2018-01-04T07:41:52.720Z,66.28
2018-01-04T07:44:21.147Z,69.78
2018-01-04T07:46:49.491Z,70.27
2018-01-04T07:49:17.860Z,70.49
2018-01-04T07:51:46.214Z,69.77
2018-01-04T07:54:14.598Z,64.73
2018-01-04T07:56:42.967Z,70.54
2018-01-04T07:59:11.358Z,70.52
2018-01-04T08:01:39.732Z,67.86
2018-01-04T08:04:08.117Z,68.02
2018-01-04T08:06:36.507Z,66.81
2018-01-04T08:09:05.029Z,68.20
2018-01-04T08:11:33.457Z,66.26
2018-01-04T08:14:01.855Z,67.72
2018-01-04T08:16:30.210Z,66.31
2018-01-04T08:18:58.578Z,68.22
2018-01-04T08:21:26.971Z,65.82
2018-01-04T08:23:55.371Z,66.80
2018-01-04T08:26:23.756Z,64.73
2018-01-04T08:28:52.274Z,67.45
2018-01-04T08:31:20.708Z,65.18
2018-01-04T08:33:49.120Z,65.28
2018-01-04T08:36:17.485Z,62.90
2018-01-04T08:38:45.882Z,65.78
2018-01-04T08:41:14.265Z,68.47
2018-01-04T08:43:46.603Z,67.14
2018-01-04T08:46:15.072Z,65.35
2018-01-04T08:48:43.440Z,68.21
2018-01-04T08:51:11.812Z,65.39
2018-01-04T08:53:40.168Z,66.24
2018-01-04T08:56:08.550Z,65.83
2018-01-04T08:58:36.921Z,64.60
2018-01-04T09:01:05.327Z,65.22
2018-01-04T09:03:33.691Z,63.94
2018-01-04T09:06:02.167Z,66.48
2018-01-04T09:08:30.608Z,66.09
2018-01-04T09:10:58.983Z,66.09
2018-01-04T09:13:27.382Z,67.36
2018-01-04T09:15:55.823Z,66.55
2018-01-04T09:18:24.188Z,66.64
2018-01-04T09:20:52.800Z,65.09
2018-01-04T09:23:21.176Z,67.26
2018-01-04T09:25:49.558Z,67.93
2018-01-04T09:28:17.908Z,65.31
2018-01-04T09:30:46.303Z,65.15
2018-01-04T09:33:14.766Z,64.83
2018-01-04T09:35:43.141Z,65.92
2018-01-04T09:38:11.500Z,65.92
2018-01-04T09:40:39.856Z,63.92
2018-01-04T09:43:08.202Z,63.72
2018-01-04T09:45:36.586Z,64.80
2018-01-04T09:48:05.017Z,64.70
2018-01-04T09:50:33.407Z,65.00
2018-01-04T09:53:01.786Z,64.29
2018-01-04T09:55:31.091Z,65.39
2018-01-04T09:57:59.461Z,67.41
2018-01-04T10:00:27.989Z,65.72
2018-01-04T10:02:56.333Z,63.36
2018-01-04T10:05:24.769Z,63.12
2018-01-04T10:07:53.270Z,66.06
2018-01-04T10:10:21.648Z,66.40
2018-01-04T10:12:49.996Z,65.61
2018-01-04T10:15:18.384Z,65.09
2018-01-04T10:17:46.788Z,67.10
2018-01-04T10:20:15.160Z,64.68
2018-01-04T10:22:43.553Z,65.98
2018-01-04T10:25:11.929Z,64.54
2018-01-04T10:27:40.316Z,66.01
2018-01-04T10:30:08.675Z,67.15
2018-01-04T10:32:37.036Z,65.09
2018-01-04T10:35:05.436Z,66.42
2018-01-04T10:37:33.812Z,65.27
2018-01-04T10:40:02.177Z,63.62
2018-01-04T10:42:30.623Z,65.00
2018-01-04T10:44:59.003Z,67.36
2018-01-04T10:47:27.491Z,65.85
2018-01-04T10:52:30.590Z,65.69
2018-01-04T10:54:59.116Z,66.51
2018-01-04T10:57:27.482Z,63.65
2018-01-04T10:59:55.909Z,67.19
2018-01-04T11:02:24.264Z,65.41
2018-01-04T11:04:52.659Z,65.19
2018-01-04T11:07:21.068Z,65.42
2018-01-04T11:09:49.424Z,68.57
2018-01-04T11:12:17.786Z,69.52
2018-01-04T11:14:46.268Z,69.44
2018-01-04T11:17:14.639Z,70.08
2018-01-04T11:19:42.979Z,69.90
2018-01-04T11:22:11.370Z,67.37
2018-01-04T11:24:39.733Z,67.69
2018-01-04T11:27:08.157Z,65.99
2018-01-04T11:29:36.508Z,65.38
2018-01-04T11:32:06.043Z,66.13
2018-01-04T11:34:34.405Z,65.71
2018-01-04T11:37:02.777Z,68.37
2018-01-04T11:39:31.174Z,64.95
2018-01-04T11:41:59.615Z,64.16
2018-01-04T11:44:28.127Z,64.59
2018-01-04T11:46:56.497Z,62.96
2018-01-04T11:49:24.897Z,64.39
2018-01-04T11:51:53.330Z,62.47
2018-01-04T11:56:56.304Z,66.86
2018-01-04T11:59:24.729Z,64.16
2018-01-04T12:01:53.076Z,66.19
2018-01-04T12:04:21.465Z,63.97
2018-01-04T12:06:49.819Z,63.86
2018-01-04T12:09:22.038Z,62.33
2018-01-04T12:11:50.394Z,64.40
2018-01-04T12:14:18.806Z,64.14
2018-01-04T12:16:47.174Z,63.28
2018-01-04T12:19:15.532Z,64.88
2018-01-04T12:21:43.899Z,64.97
2018-01-04T12:24:12.256Z,66.01
2018-01-04T12:26:40.680Z,66.46
2018-01-04T12:29:09.088Z,66.37
2018-01-04T12:31:37.452Z,66.31
2018-01-04T12:34:05.824Z,67.65
2018-01-04T12:36:34.192Z,67.05
2018-01-04T12:39:02.616Z,66.29
2018-01-04T12:41:31.040Z,66.18
2018-01-04T12:43:59.496Z,65.49
2018-01-04T12:46:27.866Z,64.20
2018-01-04T12:48:56.338Z,64.14
2018-01-04T12:51:24.725Z,62.95
2018-01-04T12:53:53.095Z,65.02
2018-01-04T12:56:21.456Z,64.78
2018-01-04T12:58:49.866Z,62.86
2018-01-04T13:01:18.233Z,63.49
2018-01-04T13:03:46.673Z,63.82
2018-01-04T13:06:15.037Z,64.55
2018-01-04T13:08:43.401Z,63.13
2018-01-04T13:11:11.750Z,60.69
2018-01-04T13:13:40.103Z,59.48
2018-01-04T13:16:08.494Z,59.33
2018-01-04T13:18:36.882Z,59.20
2018-01-04T13:21:06.006Z,57.61
2018-01-04T13:23:34.399Z,58.75
2018-01-04T13:26:02.790Z,60.96
2018-01-04T13:28:31.214Z,58.55
2018-01-04T13:30:59.569Z,56.37
2018-01-04T13:33:27.973Z,57.93
2018-01-04T13:35:56.335Z,57.75
2018-01-04T13:38:24.802Z,59.80
2018-01-04T13:40:53.214Z,60.58
2018-01-04T13:43:21.695Z,62.67
2018-01-04T13:45:50.116Z,60.20
2018-01-04T13:48:18.478Z,62.67
2018-01-04T13:50:46.845Z,64.40
2018-01-04T13:53:15.298Z,61.74
2018-01-04T13:55:43.639Z,65.67
2018-01-04T13:58:11.992Z,62.47
2018-01-04T14:00:40.413Z,60.36
2018-01-04T14:03:08.970Z,58.95
2018-01-04T14:05:37.360Z,58.92
2018-01-04T14:08:05.771Z,59.37
2018-01-04T14:10:34.152Z,60.76
2018-01-04T14:13:02.505Z,63.63
2018-01-04T14:15:30.954Z,61.19
2018-01-04T14:17:59.624Z,61.29
2018-01-04T14:20:28.035Z,61.88
2018-01-04T14:22:56.455Z,64.19
2018-01-04T14:25:24.838Z,65.45
2018-01-04T14:27:53.275Z,66.23
2018-01-04T14:30:21.628Z,63.59
2018-01-04T14:32:50.020Z,62.02
2018-01-04T14:35:18.388Z,68.78
2018-01-04T14:37:46.837Z,64.82
2018-01-04T14:40:15.202Z,67.06
2018-01-04T14:42:43.552Z,68.40
2018-01-04T14:45:12.095Z,69.27
2018-01-04T14:47:40.464Z,65.93
2018-01-04T14:50:08.812Z,64.74
2018-01-04T14:52:37.150Z,65.22
2018-01-04T14:55:05.535Z,67.47
2018-01-04T14:57:33.903Z,68.54
2018-01-04T15:00:02.287Z,71.29
2018-01-04T15:02:30.703Z,67.39
2018-01-04T15:04:59.116Z,67.98
2018-01-04T15:07:27.506Z,68.54
2018-01-04T15:09:55.913Z,69.01
2018-01-04T15:12:24.455Z,67.69
2018-01-04T15:14:52.826Z,64.52
2018-01-04T15:17:21.229Z,67.54
2018-01-04T15:19:49.551Z,69.34
2018-01-04T15:22:17.993Z,67.38
2018-01-04T15:24:46.351Z,69.06
2018-01-04T15:27:14.708Z,68.07
2018-01-04T15:29:43.062Z,67.08
2018-01-04T15:32:11.443Z,70.44
2018-01-04T15:34:39.818Z,69.93
2018-01-04T15:37:08.233Z,70.66
2018-01-04T15:39:36.598Z,69.90
2018-01-04T15:42:04.943Z,70.17
2018-01-04T15:44:33.312Z,71.12
2018-01-04T15:47:01.675Z,71.43
2018-01-04T15:49:30.059Z,73.39
2018-01-04T15:51:58.402Z,72.45
2018-01-04T15:54:26.807Z,72.46
2018-01-04T15:56:55.144Z,71.78
2018-01-04T15:59:23.533Z,71.93
2018-01-04T16:01:51.920Z,70.88
2018-01-04T16:04:20.320Z,72.58
2018-01-04T16:06:48.660Z,71.68
2018-01-04T16:09:17.024Z,74.44
2018-01-04T16:11:45.376Z,74.34
2018-01-04T16:14:13.744Z,76.55
2018-01-04T16:16:42.161Z,75.29
2018-01-04T16:19:10.532Z,72.23
2018-01-04T16:21:39.004Z,74.78
2018-01-04T16:24:07.354Z,74.96
2018-01-04T16:26:35.736Z,75.31
2018-01-04T16:29:04.102Z,76.27
2018-01-04T16:31:32.465Z,76.52
2018-01-04T16:34:00.861Z,74.68
2018-01-04T16:36:29.219Z,72.65
2018-01-04T16:38:57.576Z,73.36
2018-01-04T16:41:25.963Z,76.73
2018-01-04T16:43:54.326Z,72.77
2018-01-04T16:46:22.768Z,77.75
2018-01-04T16:48:51.143Z,73.77
2018-01-04T16:51:19.510Z,75.17
2018-01-04T16:53:47.891Z,72.29
2018-01-04T16:56:16.263Z,75.12
2018-01-04T16:58:44.615Z,71.42
2018-01-04T17:01:13.008Z,72.58
2018-01-04T17:03:41.371Z,72.20
2018-01-04T17:06:09.777Z,71.29
2018-01-04T17:08:38.144Z,70.63
2018-01-04T17:11:06.537Z,70.10
2018-01-04T17:13:34.896Z,70.12
2018-01-04T17:16:03.253Z,67.23
2018-01-04T17:18:31.644Z,66.55
2018-01-04T17:21:00.016Z,70.95
2018-01-04T17:23:28.432Z,72.63
2018-01-04T17:25:56.791Z,69.81
2018-01-04T17:28:25.157Z,70.98
2018-01-04T17:30:53.644Z,67.76
2018-01-04T17:33:22.019Z,70.34
2018-01-04T17:35:50.502Z,66.42
2018-01-04T17:38:18.885Z,67.51
2018-01-04T17:40:47.235Z,67.11
2018-01-04T17:43:15.588Z,66.86
2018-01-04T17:45:43.939Z,67.36
2018-01-04T17:48:12.328Z,69.16
2018-01-04T17:50:40.684Z,64.87
2018-01-04T17:53:09.077Z,65.07
2018-01-04T17:55:37.466Z,65.04
2018-01-04T17:58:05.826Z,67.22
2018-01-04T18:00:34.308Z,66.56
2018-01-04T18:03:02.657Z,67.44
2018-01-04T18:05:31.058Z,71.22
2018-01-04T18:07:59.453Z,71.60
2018-01-04T18:10:27.827Z,70.90
2018-01-04T18:12:56.189Z,70.18
2018-01-04T18:15:24.562Z,71.79
2018-01-04T18:17:52.941Z,68.41
2018-01-04T18:20:21.327Z,68.79
2018-01-04T18:22:49.717Z,64.64
2018-01-04T18:25:18.129Z,65.01
2018-01-04T18:27:46.491Z,68.65
2018-01-04T18:30:14.971Z,69.30
2018-01-04T18:32:43.428Z,68.04
2018-01-04T18:35:11.771Z,64.00
2018-01-04T18:37:40.147Z,65.57
2018-01-04T18:40:08.506Z,61.75
2018-01-04T18:42:36.895Z,61.80
2018-01-04T18:45:05.256Z,63.36
2018-01-04T18:47:33.651Z,66.78
2018-01-04T18:50:02.012Z,65.05
2018-01-04T18:52:30.408Z,67.32
2018-01-04T18:54:58.804Z,67.54
2018-01-04T18:57:27.263Z,65.95
2018-01-04T18:59:55.628Z,66.06
2018-01-04T19:02:24.031Z,64.27
2018-01-04T19:04:52.388Z,64.98
2018-01-04T19:07:20.781Z,63.66
2018-01-04T19:09:49.158Z,63.28
2018-01-04T19:12:17.506Z,64.59
2018-01-04T19:14:45.867Z,62.98
2018-01-04T19:17:14.476Z,61.66
2018-01-04T19:19:42.862Z,60.63
2018-01-04T19:22:11.383Z,60.45
2018-01-04T19:24:39.939Z,61.50
2018-01-04T19:27:08.295Z,61.93
2018-01-04T19:29:36.651Z,66.02
2018-01-04T19:34:39.642Z,62.55
2018-01-04T19:37:08.039Z,62.27
2018-01-04T19:39:36.416Z,62.77
2018-01-04T19:42:04.779Z,66.24
2018-01-04T19:44:33.269Z,66.22
2018-01-04T19:47:01.657Z,67.38
2018-01-04T19:49:30.015Z,64.68
2018-01-04T19:51:58.409Z,66.79
2018-01-04T19:54:26.792Z,68.69
2018-01-04T19:56:55.161Z,66.67
2018-01-04T19:59:23.523Z,67.17
2018-01-04T20:01:51.904Z,64.80
2018-01-04T20:04:20.326Z,63.23
2018-01-04T20:06:49.338Z,64.48
2018-01-04T20:09:17.725Z,63.64
2018-01-04T20:11:46.135Z,66.52
2018-01-04T20:14:14.508Z,68.61
2018-01-04T20:16:42.864Z,67.83
2018-01-04T20:19:11.228Z,65.93
2018-01-04T20:21:39.623Z,64.92
2018-01-04T20:24:08.060Z,65.38
2018-01-04T20:26:36.436Z,67.22
2018-01-04T20:29:04.816Z,67.17
2018-01-04T20:31:33.174Z,69.39
2018-01-04T20:34:01.621Z,67.79
2018-01-04T20:36:30.074Z,65.79
2018-01-04T20:38:58.420Z,67.84
2018-01-04T20:41:26.788Z,63.91
2018-01-04T20:43:55.174Z,65.14
2018-01-04T20:46:23.562Z,68.35
2018-01-04T20:48:51.916Z,68.60
2018-01-04T20:51:20.279Z,67.79
2018-01-04T20:53:48.643Z,66.17
2018-01-04T20:56:17.009Z,68.54
2018-01-04T20:58:45.399Z,66.04
2018-01-04T21:01:13.835Z,66.02
2018-01-04T21:03:42.215Z,66.58
2018-01-04T21:06:10.584Z,65.85
2018-01-04T21:08:40.071Z,68.13
2018-01-04T21:11:10.268Z,66.06
2018-01-04T21:13:38.624Z,64.78
2018-01-04T21:16:06.985Z,67.92
2018-01-04T21:18:35.347Z,67.41
2018-01-04T21:21:03.815Z,67.21
2018-01-04T21:23:32.171Z,65.12
2018-01-04T21:26:00.566Z,62.63
2018-01-04T21:28:28.920Z,64.75
2018-01-04T21:30:57.307Z,66.69
2018-01-04T21:33:25.655Z,65.46
2018-01-04T21:35:54.032Z,64.78
2018-01-04T21:38:22.426Z,64.27
2018-01-04T21:40:50.776Z,61.85
2018-01-04T21:43:19.156Z,63.39
2018-01-04T21:45:47.512Z,63.62
2018-01-04T21:48:15.919Z,67.41
2018-01-04T21:50:44.288Z,69.61
2018-01-04T21:53:12.930Z,66.79
2018-01-04T21:55:41.294Z,67.79
2018-01-04T21:58:09.700Z,69.96
2018-01-04T22:00:38.096Z,67.09
2018-01-04T22:03:06.612Z,66.52
2018-01-04T22:05:34.959Z,65.57
2018-01-04T22:08:03.337Z,68.56
2018-01-04T22:10:31.700Z,66.27
2018-01-04T22:13:00.103Z,68.09
2018-01-04T22:15:28.452Z,66.50
2018-01-04T22:17:56.831Z,66.77
2018-01-04T22:20:25.363Z,67.99
2018-01-04T22:22:53.739Z,67.59
2018-01-04T22:25:22.170Z,66.86
2018-01-04T22:27:50.567Z,65.85
2018-01-04T22:30:18.952Z,68.41
2018-01-04T22:32:47.324Z,66.64
2018-01-04T22:35:15.694Z,66.09
2018-01-04T22:37:44.063Z,67.73
2018-01-04T22:40:12.520Z,64.73
2018-01-04T22:42:40.933Z,62.28
2018-01-04T22:45:09.327Z,65.41
2018-01-04T22:47:37.691Z,64.91
2018-01-04T22:50:06.075Z,62.91
2018-01-04T22:52:34.419Z,64.03
2018-01-04T22:55:02.799Z,62.41
2018-01-04T22:57:31.163Z,61.82
2018-01-04T22:59:59.520Z,62.26
2018-01-04T23:02:27.887Z,63.82
2018-01-04T23:04:56.235Z,61.93
2018-01-04T23:07:24.631Z,60.90
2018-01-04T23:09:53.004Z,61.67
2018-01-04T23:12:21.355Z,61.47
2018-01-04T23:14:49.718Z,59.60
2018-01-04T23:17:18.073Z,59.54
2018-01-04T23:19:46.459Z,63.09
2018-01-04T23:22:14.826Z,64.96
2018-01-04T23:24:43.188Z,62.33
2018-01-04T23:27:11.580Z,64.12
2018-01-04T23:29:39.935Z,62.60
2018-01-04T23:32:08.293Z,62.94
2018-01-04T23:34:36.680Z,62.71
2018-01-04T23:37:05.042Z,59.07
2018-01-04T23:39:33.528Z,60.40
2018-01-04T23:42:01.900Z,62.60
2018-01-04T23:44:30.263Z,62.46
2018-01-04T23:46:58.612Z,60.22
2018-01-04T23:49:26.967Z,60.35
2018-01-04T23:51:55.343Z,61.31
2018-01-04T23:54:23.718Z,58.89
2018-01-04T23:56:52.085Z,58.28
2018-01-04T23:59:20.433Z,59.69
